Time;durP1;ratioP1;P1;durP2;ratioP2;P2;SDS_P1;SDS_P2;PMS_P1;PMS_P2;Temp;Humidity;BMP_temperature;BMP_pressure;BME280_temperature;BME280_humidity;BME280_pressure;Samples;Min_cycle;Max_cycle;Signal;HPM_P1;HPM_P2
2022/04/18 00:01:23;0.00;0.00;0.62;0.00;0.00;0.62;2.50;1.60;;;27.40;21.70;;;;;;2256326;61;20972;-66
2022/04/18 00:04:09;0.00;0.00;0.62;0.00;0.00;0.62;2.27;1.80;;;27.40;21.70;;;;;;2256540;61;20831;-64
2022/04/18 00:06:54;0.00;0.00;0.62;0.00;0.00;0.62;2.87;2.00;;;27.40;21.70;;;;;;2256247;61;20390;-64
2022/04/18 00:09:38;0.00;0.00;0.62;0.00;0.00;0.62;2.63;2.37;;;27.40;21.70;;;;;;2255611;61;20357;-66
2022/04/18 00:12:23;0.00;0.00;0.62;0.00;0.00;0.62;4.40;3.40;;;27.40;21.60;;;;;;2255989;61;20368;-68
2022/04/18 00:15:08;0.00;0.00;0.62;0.00;0.00;0.62;5.27;3.80;;;27.40;21.40;;;;;;2253376;61;20980;-64
2022/04/18 00:17:52;0.00;0.00;0.62;0.00;0.00;0.62;4.37;3.87;;;27.30;21.30;;;;;;2255790;61;20524;-67
2022/04/18 00:20:38;0.00;0.00;0.62;0.00;0.00;0.62;4.40;3.93;;;27.30;21.20;;;;;;2255383;61;20421;-72
2022/04/18 00:23:23;0.00;0.00;0.62;0.00;0.00;0.62;5.40;4.33;;;27.30;21.10;;;;;;2256409;61;20440;-65
2022/04/18 00:26:07;0.00;0.00;0.62;0.00;0.00;0.62;4.70;4.20;;;27.30;21.00;;;;;;2256280;61;20835;-65
2022/04/18 00:28:52;0.00;0.00;0.62;0.00;0.00;0.62;5.23;4.40;;;27.20;20.90;;;;;;2255855;61;20389;-65
2022/04/18 00:31:36;0.00;0.00;0.62;0.00;0.00;0.62;4.93;4.43;;;27.20;20.80;;;;;;2255960;61;20377;-65
2022/04/18 00:34:21;0.00;0.00;0.62;0.00;0.00;0.62;5.33;4.70;;;27.20;20.80;;;;;;2253103;61;20458;-65
2022/04/18 00:37:06;0.00;0.00;0.62;0.00;0.00;0.62;4.90;4.40;;;27.20;20.80;;;;;;2252373;61;20378;-65
2022/04/18 00:39:51;0.00;0.00;0.62;0.00;0.00;0.62;5.47;4.97;;;27.10;20.70;;;;;;2709700;45;20846;-66
2022/04/18 00:42:36;0.00;0.00;0.62;0.00;0.00;0.62;5.83;5.23;;;27.10;20.60;;;;;;2255605;61;20369;-64
2022/04/18 00:45:20;0.00;0.00;0.62;0.00;0.00;0.62;6.93;5.97;;;27.10;20.60;;;;;;2256481;61;20366;-65
2022/04/18 00:48:05;0.00;0.00;0.62;0.00;0.00;0.62;6.10;5.27;;;27.00;20.50;;;;;;2251784;61;20393;-65
2022/04/18 00:50:50;0.00;0.00;0.62;0.00;0.00;0.62;6.50;5.20;;;27.00;20.50;;;;;;2255533;61;20385;-65
2022/04/18 00:53:38;0.00;0.00;0.62;0.00;0.00;0.62;6.30;5.33;;;27.00;20.40;;;;;;2255864;61;20381;-65
2022/04/18 00:56:24;0.00;0.00;0.62;0.00;0.00;0.62;7.40;5.60;;;27.00;20.40;;;;;;2256173;61;20394;-65
2022/04/18 00:59:09;0.00;0.00;0.62;0.00;0.00;0.62;6.20;5.57;;;26.90;20.40;;;;;;2256163;61;20813;-65
2022/04/18 01:01:54;0.00;0.00;0.62;0.00;0.00;0.62;7.40;5.67;;;26.90;20.40;;;;;;2256142;61;20918;-66
2022/04/18 01:04:39;0.00;0.00;0.62;0.00;0.00;0.62;7.37;6.20;;;26.90;20.40;;;;;;2252434;61;20366;-74
2022/04/18 01:07:24;0.00;0.00;0.62;0.00;0.00;0.62;6.30;5.70;;;26.90;20.40;;;;;;2253016;61;20408;-66
2022/04/18 01:10:10;0.00;0.00;0.62;0.00;0.00;0.62;6.67;6.00;;;26.80;20.30;;;;;;2252800;61;20955;-65
2022/04/18 01:12:55;0.00;0.00;0.62;0.00;0.00;0.62;6.00;5.40;;;26.80;20.30;;;;;;2255767;61;20772;-65
2022/04/18 01:16:17;0.00;0.00;0.62;0.00;0.00;0.62;6.30;5.70;;;26.80;20.30;;;;;;2254649;61;20397;-65
2022/04/18 01:19:16;0.00;0.00;0.62;0.00;0.00;0.62;6.87;6.10;;;26.70;20.20;;;;;;2252335;61;20362;-65
2022/04/18 01:22:33;0.00;0.00;0.62;0.00;0.00;0.62;7.17;6.43;;;26.70;20.20;;;;;;2246852;61;20364;-66
2022/04/18 01:29:01;0.00;0.00;0.62;0.00;0.00;0.62;7.77;6.77;;;26.60;20.10;;;;;;2243875;61;20356;-65
2022/04/18 01:31:47;0.00;0.00;0.62;0.00;0.00;0.62;7.60;6.47;;;26.60;20.10;;;;;;2244051;61;20387;-65
2022/04/18 01:34:32;0.00;0.00;0.62;0.00;0.00;0.62;9.23;6.60;;;26.60;20.10;;;;;;2246588;61;20414;-65
2022/04/18 01:37:16;0.00;0.00;0.62;0.00;0.00;0.62;7.47;6.77;;;26.50;20.00;;;;;;2244121;61;21014;-66
2022/04/18 01:40:02;0.00;0.00;0.62;0.00;0.00;0.62;7.63;6.57;;;26.50;20.00;;;;;;2243977;61;20391;-65
2022/04/18 01:42:47;0.00;0.00;0.62;0.00;0.00;0.62;7.57;6.77;;;26.50;20.00;;;;;;2243809;61;20368;-65
2022/04/18 01:45:34;0.00;0.00;0.62;0.00;0.00;0.62;8.40;6.90;;;26.40;20.00;;;;;;2243867;61;20400;-65
2022/04/18 01:48:32;0.00;0.00;0.62;0.00;0.00;0.62;7.43;6.43;;;26.40;19.90;;;;;;2243666;61;20359;-65
2022/04/18 01:51:17;0.00;0.00;0.62;0.00;0.00;0.62;8.23;7.40;;;26.40;20.00;;;;;;2247173;61;20966;-69
2022/04/18 01:54:01;0.00;0.00;0.62;0.00;0.00;0.62;8.20;7.23;;;26.30;19.90;;;;;;2251773;61;20525;-65
2022/04/18 01:56:48;0.00;0.00;0.62;0.00;0.00;0.62;9.03;7.60;;;26.30;19.90;;;;;;2248333;61;20483;-65
2022/04/18 01:59:34;0.00;0.00;0.62;0.00;0.00;0.62;8.20;7.00;;;26.30;19.90;;;;;;2251145;61;20506;-65
2022/04/18 02:02:19;0.00;0.00;0.62;0.00;0.00;0.62;7.90;6.93;;;26.30;19.90;;;;;;2249183;61;20802;-65
2022/04/18 02:05:06;0.00;0.00;0.62;0.00;0.00;0.62;7.70;6.90;;;26.20;19.80;;;;;;2251736;61;20414;-65
2022/04/18 02:07:52;0.00;0.00;0.62;0.00;0.00;0.62;9.23;8.03;;;26.20;19.80;;;;;;2248312;61;20366;-66
2022/04/18 02:10:37;0.00;0.00;0.62;0.00;0.00;0.62;10.20;9.00;;;26.20;19.90;;;;;;2248967;61;20386;-65
2022/04/18 02:13:24;0.00;0.00;0.62;0.00;0.00;0.62;9.63;8.30;;;26.20;19.90;;;;;;2249140;61;20371;-65
2022/04/18 02:16:10;0.00;0.00;0.62;0.00;0.00;0.62;7.80;7.00;;;26.10;19.80;;;;;;2248635;61;20527;-65
2022/04/18 02:18:58;0.00;0.00;0.62;0.00;0.00;0.62;8.80;7.83;;;26.10;19.80;;;;;;2247923;61;20413;-68
2022/04/18 02:21:44;0.00;0.00;0.62;0.00;0.00;0.62;8.60;7.50;;;26.10;19.80;;;;;;2248713;61;20391;-65
2022/04/18 02:24:29;0.00;0.00;0.62;0.00;0.00;0.62;9.20;7.10;;;26.10;19.80;;;;;;2252491;61;20945;-66
2022/04/18 02:27:14;0.00;0.00;0.62;0.00;0.00;0.62;8.30;6.97;;;26.00;19.80;;;;;;2248360;61;20963;-65
2022/04/18 02:29:59;0.00;0.00;0.62;0.00;0.00;0.62;8.60;7.50;;;26.00;19.80;;;;;;2248171;61;20406;-68
2022/04/18 02:32:47;0.00;0.00;0.62;0.00;0.00;0.62;9.03;7.80;;;26.00;19.80;;;;;;2250351;61;20382;-66
2022/04/18 02:35:32;0.00;0.00;0.62;0.00;0.00;0.62;8.03;7.27;;;25.90;19.80;;;;;;2253135;61;20933;-66
2022/04/18 02:38:17;0.00;0.00;0.62;0.00;0.00;0.62;8.80;7.73;;;25.90;19.80;;;;;;2252099;61;20411;-66
2022/04/18 02:41:04;0.00;0.00;0.62;0.00;0.00;0.62;9.30;7.50;;;25.90;19.80;;;;;;2252188;61;20421;-66
2022/04/18 02:43:49;0.00;0.00;0.62;0.00;0.00;0.62;10.10;8.00;;;25.90;19.80;;;;;;2255881;61;20370;-65
2022/04/18 02:46:35;0.00;0.00;0.62;0.00;0.00;0.62;8.97;7.67;;;25.80;19.70;;;;;;2252575;61;20396;-66
2022/04/18 02:49:23;0.00;0.00;0.62;0.00;0.00;0.62;8.27;7.47;;;25.80;19.80;;;;;;2251944;61;20944;-66
2022/04/18 02:52:08;0.00;0.00;0.62;0.00;0.00;0.62;9.00;7.80;;;25.80;19.80;;;;;;2252334;61;20389;-66
2022/04/18 02:54:52;0.00;0.00;0.62;0.00;0.00;0.62;8.97;8.03;;;25.70;19.70;;;;;;2252655;61;20452;-66
2022/04/18 02:57:37;0.00;0.00;0.62;0.00;0.00;0.62;7.97;7.17;;;25.70;19.70;;;;;;2256931;61;20454;-66
2022/04/18 03:00:22;0.00;0.00;0.62;0.00;0.00;0.62;8.20;7.13;;;25.70;19.80;;;;;;2252973;61;21022;-67
2022/04/18 03:03:10;0.00;0.00;0.62;0.00;0.00;0.62;8.20;7.37;;;25.70;19.80;;;;;;2252536;61;20772;-65
2022/04/18 03:05:55;0.00;0.00;0.62;0.00;0.00;0.62;7.80;7.00;;;25.70;19.80;;;;;;2253410;61;20365;-66
2022/04/18 03:08:40;0.00;0.00;0.62;0.00;0.00;0.62;8.83;7.90;;;25.60;19.80;;;;;;2252895;61;20366;-66
2022/04/18 03:11:25;0.00;0.00;0.62;0.00;0.00;0.62;7.93;7.13;;;25.60;19.80;;;;;;2252853;61;20432;-66
2022/04/18 03:14:09;0.00;0.00;0.62;0.00;0.00;0.62;8.40;7.60;;;25.60;19.80;;;;;;2256088;61;20412;-66
2022/04/18 03:16:59;0.00;0.00;0.62;0.00;0.00;0.62;9.97;7.93;;;25.60;19.80;;;;;;2252863;61;20393;-66
2022/04/18 03:19:45;0.00;0.00;0.62;0.00;0.00;0.62;8.63;7.83;;;25.50;19.80;;;;;;2252837;61;20397;-69
2022/04/18 03:22:31;0.00;0.00;0.62;0.00;0.00;0.62;7.97;7.17;;;25.50;19.80;;;;;;2253181;61;20450;-66
2022/04/18 03:25:21;0.00;0.00;0.62;0.00;0.00;0.62;10.00;7.30;;;25.50;19.80;;;;;;2485831;53;20354;-66
2022/04/18 03:28:06;0.00;0.00;0.62;0.00;0.00;0.62;7.13;6.33;;;25.40;19.80;;;;;;2251637;61;20374;-66
2022/04/18 03:30:51;0.00;0.00;0.62;0.00;0.00;0.62;10.30;7.80;;;25.40;19.80;;;;;;2249100;61;20386;-68
2022/04/18 03:33:35;0.00;0.00;0.62;0.00;0.00;0.62;9.83;7.80;;;25.40;19.80;;;;;;2252032;61;20452;-66
2022/04/18 03:40:18;;;;;;;;;;;;;;;;;;;;;
2022/04/18 03:42:33;0.00;0.00;0.62;0.00;0.00;0.62;10.87;8.20;;;25.30;19.80;;;;;;2248395;61;20366;-63
2022/04/18 03:45:20;0.00;0.00;0.62;0.00;0.00;0.62;8.87;7.23;;;25.30;19.80;;;;;;2249462;61;20406;-65
2022/04/18 03:48:06;0.00;0.00;0.62;0.00;0.00;0.62;10.43;8.30;;;25.20;19.70;;;;;;2248292;61;20609;-64
2022/04/18 03:50:51;0.00;0.00;0.62;0.00;0.00;0.62;8.97;7.80;;;25.20;19.70;;;;;;2249075;61;20437;-64
2022/04/18 03:53:38;0.00;0.00;0.62;0.00;0.00;0.62;9.33;7.90;;;25.20;19.70;;;;;;2249349;61;20821;-65
2022/04/18 03:56:23;0.00;0.00;0.62;0.00;0.00;0.62;9.40;8.20;;;25.20;19.70;;;;;;2251905;61;20399;-65
2022/04/18 03:59:30;0.00;0.00;0.62;0.00;0.00;0.62;8.57;7.70;;;25.10;19.70;;;;;;2251419;61;20386;-65
2022/04/18 04:02:19;0.00;0.00;0.62;0.00;0.00;0.62;9.17;8.27;;;25.10;19.70;;;;;;2251388;61;20382;-65
2022/04/18 04:05:09;0.00;0.00;0.62;0.00;0.00;0.62;11.20;8.40;;;25.10;19.70;;;;;;2249232;61;20936;-64
2022/04/18 04:07:53;0.00;0.00;0.62;0.00;0.00;0.62;7.80;7.10;;;25.10;19.70;;;;;;2248734;61;20429;-65
2022/04/18 04:10:46;0.00;0.00;0.62;0.00;0.00;0.62;9.77;8.87;;;25.00;19.70;;;;;;2251510;61;20471;-66
2022/04/18 04:13:31;0.00;0.00;0.62;0.00;0.00;0.62;8.50;7.70;;;25.00;19.70;;;;;;2248660;61;20902;-63
2022/04/18 04:16:29;0.00;0.00;0.62;0.00;0.00;0.62;8.83;8.00;;;25.00;19.70;;;;;;2249163;61;20938;-65
2022/04/18 04:19:15;0.00;0.00;0.62;0.00;0.00;0.62;8.03;7.23;;;25.00;19.80;;;;;;2252374;61;20875;-70
2022/04/18 04:21:59;0.00;0.00;0.62;0.00;0.00;0.62;9.23;8.33;;;24.90;19.70;;;;;;2248795;61;20386;-65
2022/04/18 04:24:44;0.00;0.00;0.62;0.00;0.00;0.62;9.50;7.90;;;24.90;19.70;;;;;;2248746;61;20895;-65
2022/04/18 04:27:30;0.00;0.00;0.62;0.00;0.00;0.62;9.80;7.83;;;24.90;19.80;;;;;;2252015;61;20385;-65
2022/04/18 04:30:17;0.00;0.00;0.62;0.00;0.00;0.62;9.40;8.50;;;24.80;19.70;;;;;;2253399;61;20432;-65
2022/04/18 04:33:15;0.00;0.00;0.62;0.00;0.00;0.62;8.33;7.50;;;24.80;19.70;;;;;;2252820;61;20455;-65
2022/04/18 04:36:01;0.00;0.00;0.62;0.00;0.00;0.62;9.57;8.10;;;24.80;19.70;;;;;;2252791;61;20386;-64
2022/04/18 04:38:46;0.00;0.00;0.62;0.00;0.00;0.62;9.97;8.37;;;24.80;19.70;;;;;;2252494;61;20366;-65
2022/04/18 04:41:46;0.00;0.00;0.62;0.00;0.00;0.62;8.70;7.50;;;24.70;19.70;;;;;;2253330;61;20420;-65
2022/04/18 04:44:32;0.00;0.00;0.62;0.00;0.00;0.62;9.57;8.30;;;24.70;19.70;;;;;;2253309;61;20393;-65
2022/04/18 04:47:20;0.00;0.00;0.62;0.00;0.00;0.62;9.23;8.23;;;24.70;19.70;;;;;;2255361;61;20397;-67
2022/04/18 04:50:06;0.00;0.00;0.62;0.00;0.00;0.62;7.90;7.10;;;24.70;19.80;;;;;;2252324;61;20425;-65
2022/04/18 04:53:03;0.00;0.00;0.62;0.00;0.00;0.62;8.27;7.33;;;24.70;19.80;;;;;;2255802;61;20440;-65
2022/04/18 04:55:48;0.00;0.00;0.62;0.00;0.00;0.62;8.93;7.83;;;24.70;19.80;;;;;;2255512;61;20862;-65
2022/04/18 04:58:33;0.00;0.00;0.62;0.00;0.00;0.62;8.90;7.97;;;24.60;19.80;;;;;;2252379;61;20461;-68
2022/04/18 05:01:22;0.00;0.00;0.62;0.00;0.00;0.62;9.73;7.80;;;24.60;19.80;;;;;;2252290;61;20902;-64
2022/04/18 05:04:11;0.00;0.00;0.62;0.00;0.00;0.62;10.27;8.10;;;24.60;19.80;;;;;;2255714;61;20436;-64
2022/04/18 05:06:58;0.00;0.00;0.62;0.00;0.00;0.62;8.03;7.23;;;24.60;19.80;;;;;;2255759;61;20365;-63
2022/04/18 05:09:57;0.00;0.00;0.62;0.00;0.00;0.62;8.00;7.20;;;24.50;19.80;;;;;;2254792;61;20782;-66
2022/04/18 05:12:42;0.00;0.00;0.62;0.00;0.00;0.62;8.90;7.37;;;24.50;19.80;;;;;;2252726;61;20890;-65
2022/04/18 05:15:27;0.00;0.00;0.62;0.00;0.00;0.62;9.03;7.20;;;24.50;19.80;;;;;;2255560;61;20386;-63
2022/04/18 05:18:32;0.00;0.00;0.62;0.00;0.00;0.62;8.37;7.57;;;24.50;19.80;;;;;;2253066;61;20358;-64
2022/04/18 05:21:18;0.00;0.00;0.62;0.00;0.00;0.62;8.83;7.93;;;24.40;19.80;;;;;;2252719;61;20437;-64
2022/04/18 05:24:05;0.00;0.00;0.62;0.00;0.00;0.62;8.97;7.57;;;24.50;19.90;;;;;;2255438;61;20770;-64
2022/04/18 05:26:50;0.00;0.00;0.62;0.00;0.00;0.62;8.83;7.80;;;24.40;19.80;;;;;;2252831;61;20452;-66
2022/04/18 05:29:36;0.00;0.00;0.62;0.00;0.00;0.62;8.00;7.20;;;24.40;19.80;;;;;;2255664;61;20369;-64
2022/04/18 05:32:21;0.00;0.00;0.62;0.00;0.00;0.62;9.70;8.50;;;24.40;19.90;;;;;;2252756;61;20886;-69
2022/04/18 05:35:14;0.00;0.00;0.62;0.00;0.00;0.62;7.20;6.50;;;24.30;19.80;;;;;;2252441;61;20788;-64
2022/04/18 05:37:59;0.00;0.00;0.62;0.00;0.00;0.62;8.33;7.00;;;24.30;19.90;;;;;;2255082;61;20398;-69
2022/04/18 05:40:58;0.00;0.00;0.62;0.00;0.00;0.62;9.50;7.80;;;24.30;19.90;;;;;;2255950;61;20418;-64
2022/04/18 05:43:42;0.00;0.00;0.62;0.00;0.00;0.62;8.90;8.00;;;24.30;19.90;;;;;;2255764;61;20374;-64
2022/04/18 05:46:28;0.00;0.00;0.62;0.00;0.00;0.62;9.80;7.53;;;24.30;19.90;;;;;;2254614;61;20417;-65
2022/04/18 05:49:16;0.00;0.00;0.62;0.00;0.00;0.62;8.70;7.53;;;24.30;19.90;;;;;;2251851;61;20456;-64
2022/04/18 05:52:02;0.00;0.00;0.62;0.00;0.00;0.62;8.43;7.57;;;24.20;19.90;;;;;;2251787;61;20417;-65
2022/04/18 05:54:47;0.00;0.00;0.62;0.00;0.00;0.62;10.13;7.63;;;24.20;19.90;;;;;;2252831;61;20905;-63
2022/04/18 05:57:31;0.00;0.00;0.62;0.00;0.00;0.62;9.23;8.33;;;24.20;19.90;;;;;;2252432;61;20754;-64
2022/04/18 06:00:21;0.00;0.00;0.62;0.00;0.00;0.62;9.37;7.83;;;24.20;19.90;;;;;;2255498;61;20390;-64
2022/04/18 06:03:12;0.00;0.00;0.62;0.00;0.00;0.62;10.50;7.60;;;24.20;19.90;;;;;;2252966;61;20825;-64
2022/04/18 06:05:56;0.00;0.00;0.62;0.00;0.00;0.62;8.80;7.90;;;24.20;19.90;;;;;;2255589;61;20366;-62
2022/04/18 06:08:42;0.00;0.00;0.62;0.00;0.00;0.62;9.43;7.67;;;24.10;19.90;;;;;;2254906;61;20362;-65
2022/04/18 06:11:30;0.00;0.00;0.62;0.00;0.00;0.62;9.67;8.27;;;24.10;19.90;;;;;;2255888;61;20394;-65
2022/04/18 06:14:39;0.00;0.00;0.62;0.00;0.00;0.62;9.60;8.13;;;24.10;19.90;;;;;;2254975;61;20436;-65
2022/04/18 06:17:24;0.00;0.00;0.62;0.00;0.00;0.62;10.00;8.10;;;24.10;19.90;;;;;;2253443;61;21137;-65
2022/04/18 06:20:12;0.00;0.00;0.62;0.00;0.00;0.62;8.80;7.60;;;24.10;19.90;;;;;;2255587;61;20782;-65
2022/04/18 06:22:57;0.00;0.00;0.62;0.00;0.00;0.62;9.40;7.23;;;24.10;19.90;;;;;;2255620;61;20509;-66
2022/04/18 06:25:43;0.00;0.00;0.62;0.00;0.00;0.62;9.80;7.80;;;24.10;19.90;;;;;;2251452;61;20381;-65
2022/04/18 06:28:28;0.00;0.00;0.62;0.00;0.00;0.62;8.80;8.00;;;24.10;20.00;;;;;;2253612;61;20374;-66
2022/04/18 06:31:12;0.00;0.00;0.62;0.00;0.00;0.62;8.30;7.20;;;24.10;20.00;;;;;;2255640;61;20433;-65
2022/04/18 06:34:06;0.00;0.00;0.62;0.00;0.00;0.62;8.30;7.30;;;24.10;20.00;;;;;;2254875;61;20373;-66
2022/04/18 06:36:52;0.00;0.00;0.62;0.00;0.00;0.62;8.10;7.30;;;24.00;20.00;;;;;;2255318;61;20848;-64
2022/04/18 06:40:00;0.00;0.00;0.62;0.00;0.00;0.62;8.83;7.93;;;24.10;20.10;;;;;;2238543;61;20373;-68
2022/04/18 06:42:58;0.00;0.00;0.62;0.00;0.00;0.62;9.80;8.80;;;24.00;20.10;;;;;;2252680;61;20913;-62
2022/04/18 06:45:48;0.00;0.00;0.62;0.00;0.00;0.62;9.17;8.17;;;24.10;20.20;;;;;;2252915;61;20767;-62
2022/04/18 06:48:33;0.00;0.00;0.62;0.00;0.00;0.62;9.83;7.83;;;24.00;20.00;;;;;;2254506;61;20470;-64
2022/04/18 06:51:37;0.00;0.00;0.62;0.00;0.00;0.62;8.80;7.90;;;24.10;20.00;;;;;;2255463;61;20447;-65
2022/04/18 06:54:44;0.00;0.00;0.62;0.00;0.00;0.62;7.33;6.63;;;24.10;20.00;;;;;;2256526;61;20433;-66
2022/04/18 06:57:31;0.00;0.00;0.62;0.00;0.00;0.62;8.47;7.60;;;24.00;19.90;;;;;;2251976;61;20402;-67
2022/04/18 07:00:18;0.00;0.00;0.62;0.00;0.00;0.62;8.70;7.80;;;24.00;20.00;;;;;;2252738;61;20405;-66
2022/04/18 07:03:04;0.00;0.00;0.62;0.00;0.00;0.62;8.00;7.27;;;24.00;20.00;;;;;;2252489;61;20385;-65
2022/04/18 07:05:48;0.00;0.00;0.62;0.00;0.00;0.62;8.20;7.40;;;24.00;20.00;;;;;;2253071;61;20362;-70
2022/04/18 07:08:33;0.00;0.00;0.62;0.00;0.00;0.62;8.37;7.47;;;24.00;20.00;;;;;;2256571;61;20458;-65
2022/04/18 07:11:37;0.00;0.00;0.62;0.00;0.00;0.62;8.27;6.97;;;24.00;20.10;;;;;;2253045;61;20454;-65
2022/04/18 07:14:21;0.00;0.00;0.62;0.00;0.00;0.62;8.43;7.50;;;24.10;20.20;;;;;;2252794;61;20369;-67
2022/04/18 07:17:12;0.00;0.00;0.62;0.00;0.00;0.62;8.80;7.17;;;24.10;20.20;;;;;;2252933;61;20394;-66
2022/04/18 07:19:56;0.00;0.00;0.62;0.00;0.00;0.62;8.60;6.60;;;24.10;20.20;;;;;;2253169;61;20373;-68
2022/04/18 07:22:43;0.00;0.00;0.62;0.00;0.00;0.62;7.73;7.03;;;24.00;20.20;;;;;;2253077;61;20381;-67
2022/04/18 07:25:30;0.00;0.00;0.62;0.00;0.00;0.62;7.90;7.03;;;24.10;20.20;;;;;;2252582;61;20904;-67
2022/04/18 07:28:41;0.00;0.00;0.62;0.00;0.00;0.62;7.53;6.73;;;24.10;20.20;;;;;;2252445;61;20365;-65
2022/04/18 07:31:31;0.00;0.00;0.62;0.00;0.00;0.62;9.03;6.57;;;24.10;20.70;;;;;;2251389;61;20444;-62
2022/04/18 07:34:17;0.00;0.00;0.62;0.00;0.00;0.62;7.67;6.83;;;24.10;20.20;;;;;;2252950;61;20373;-67
2022/04/18 07:37:02;0.00;0.00;0.62;0.00;0.00;0.62;7.83;6.67;;;24.10;20.20;;;;;;2253738;61;20397;-65
2022/04/18 07:39:47;0.00;0.00;0.62;0.00;0.00;0.62;6.70;6.10;;;24.10;20.20;;;;;;2253199;61;20374;-68
2022/04/18 07:42:32;0.00;0.00;0.62;0.00;0.00;0.62;7.67;6.30;;;24.10;20.20;;;;;;2257059;61;20407;-62
2022/04/18 07:45:17;0.00;0.00;0.62;0.00;0.00;0.62;7.10;5.77;;;24.10;20.20;;;;;;2253522;61;20416;-70
2022/04/18 07:48:02;0.00;0.00;0.62;0.00;0.00;0.62;6.57;5.90;;;24.10;20.20;;;;;;2253641;61;20370;-61
2022/04/18 07:53:56;0.00;0.00;0.62;0.00;0.00;0.62;6.67;5.97;;;24.20;20.30;;;;;;2256407;61;20401;-65
2022/04/18 07:56:43;0.00;0.00;0.62;0.00;0.00;0.62;6.20;5.37;;;24.20;20.30;;;;;;2252939;61;20388;-65
2022/04/18 07:59:28;0.00;0.00;0.62;0.00;0.00;0.62;7.00;5.70;;;24.20;20.30;;;;;;2256275;61;20382;-66
2022/04/18 08:02:13;0.00;0.00;0.62;0.00;0.00;0.62;6.93;5.90;;;24.20;20.30;;;;;;2252794;61;20421;-67
2022/04/18 08:05:22;0.00;0.00;0.62;0.00;0.00;0.62;6.27;5.63;;;24.20;20.30;;;;;;2253283;61;20366;-72
2022/04/18 08:08:22;0.00;0.00;0.62;0.00;0.00;0.62;6.33;5.13;;;24.20;20.30;;;;;;2253611;61;20860;-66
2022/04/18 08:11:11;0.00;0.00;0.62;0.00;0.00;0.62;5.93;5.00;;;24.20;20.30;;;;;;2252330;61;20421;-67
2022/04/18 08:13:57;0.00;0.00;0.62;0.00;0.00;0.62;6.23;5.10;;;24.20;20.30;;;;;;2253010;61;20813;-64
2022/04/18 08:17:00;0.00;0.00;0.62;0.00;0.00;0.62;7.50;4.30;;;24.20;20.30;;;;;;2255971;61;20389;-65
2022/04/18 08:19:50;0.00;0.00;0.62;0.00;0.00;0.62;6.00;5.40;;;24.30;20.30;;;;;;2253223;61;20818;-65
2022/04/18 08:22:34;0.00;0.00;0.62;0.00;0.00;0.62;6.37;5.70;;;24.30;20.30;;;;;;2253885;61;20374;-64
2022/04/18 08:25:46;0.00;0.00;0.62;0.00;0.00;0.62;5.80;4.53;;;24.30;20.30;;;;;;2255677;61;20562;-64
2022/04/18 08:28:51;0.00;0.00;0.62;0.00;0.00;0.62;6.77;5.47;;;24.30;20.30;;;;;;2252678;61;20772;-57
2022/04/18 08:31:38;0.00;0.00;0.62;0.00;0.00;0.62;5.27;4.77;;;24.30;20.30;;;;;;2252955;61;20969;-72
2022/04/18 08:34:27;0.00;0.00;0.62;0.00;0.00;0.62;5.30;4.80;;;24.30;20.30;;;;;;2253472;61;20392;-65
2022/04/18 08:37:11;0.00;0.00;0.62;0.00;0.00;0.62;4.40;4.00;;;24.30;20.20;;;;;;2256766;61;20456;-66
2022/04/18 08:40:16;0.00;0.00;0.62;0.00;0.00;0.62;5.50;5.00;;;24.40;20.30;;;;;;2255956;61;20528;-66
2022/04/18 08:43:03;0.00;0.00;0.62;0.00;0.00;0.62;4.77;4.20;;;24.40;20.30;;;;;;2254057;61;20404;-68
2022/04/18 08:45:50;0.00;0.00;0.62;0.00;0.00;0.62;7.73;4.77;;;24.40;20.30;;;;;;2253693;61;20366;-66
2022/04/18 08:54:43;0.00;0.00;0.62;0.00;0.00;0.62;4.70;4.23;;;24.50;20.30;;;;;;2252384;61;20413;-61
2022/04/18 08:57:29;0.00;0.00;0.62;0.00;0.00;0.62;5.30;4.47;;;24.50;20.30;;;;;;2252883;61;20470;-66
2022/04/18 09:00:15;0.00;0.00;0.62;0.00;0.00;0.62;4.00;3.60;;;24.50;20.30;;;;;;2254238;61;20385;-63
2022/04/18 09:03:04;0.00;0.00;0.62;0.00;0.00;0.62;4.90;3.87;;;24.50;20.30;;;;;;2253046;61;20420;-64
2022/04/18 09:06:08;0.00;0.00;0.62;0.00;0.00;0.62;5.20;3.63;;;24.60;20.30;;;;;;2253279;61;20357;-70
2022/04/18 09:08:57;0.00;0.00;0.62;0.00;0.00;0.62;4.70;3.77;;;24.60;20.30;;;;;;2252600;61;20370;-65
2022/04/18 09:11:46;0.00;0.00;0.62;0.00;0.00;0.62;4.23;3.73;;;24.60;20.30;;;;;;2253477;61;20393;-63
2022/04/18 09:14:35;0.00;0.00;0.62;0.00;0.00;0.62;4.07;3.37;;;24.60;20.30;;;;;;2257337;61;20364;-56
2022/04/18 09:17:30;0.00;0.00;0.62;0.00;0.00;0.62;4.17;3.57;;;24.60;20.30;;;;;;2252629;61;20390;-69
2022/04/18 09:20:51;0.00;0.00;0.62;0.00;0.00;0.62;4.30;3.60;;;24.70;20.30;;;;;;2254356;61;20393;-62
2022/04/18 09:23:38;0.00;0.00;0.62;0.00;0.00;0.62;4.03;2.93;;;24.70;20.40;;;;;;2256294;61;20816;-64
2022/04/18 09:26:51;0.00;0.00;0.62;0.00;0.00;0.62;4.50;3.10;;;24.70;20.40;;;;;;2255651;61;20913;-67
2022/04/18 09:29:39;0.00;0.00;0.62;0.00;0.00;0.62;3.47;2.97;;;24.70;20.40;;;;;;2253348;61;20420;-66
2022/04/18 09:32:28;0.00;0.00;0.62;0.00;0.00;0.62;4.63;2.67;;;24.70;20.40;;;;;;2252607;61;20415;-66
2022/04/18 09:35:39;0.00;0.00;0.62;0.00;0.00;0.62;4.47;3.13;;;24.80;20.40;;;;;;2256270;61;20398;-60
2022/04/18 09:38:23;0.00;0.00;0.62;0.00;0.00;0.62;3.33;2.57;;;24.80;20.40;;;;;;2252395;61;20517;-58
2022/04/18 09:41:23;0.00;0.00;0.62;0.00;0.00;0.62;3.30;2.73;;;24.80;20.40;;;;;;2256239;61;20377;-60
2022/04/18 09:44:07;0.00;0.00;0.62;0.00;0.00;0.62;3.60;3.07;;;24.80;20.30;;;;;;2257375;61;20487;-62
2022/04/18 09:46:59;0.00;0.00;0.62;0.00;0.00;0.62;2.80;2.20;;;24.90;20.30;;;;;;2252692;61;20768;-66
2022/04/18 09:49:56;0.00;0.00;0.62;0.00;0.00;0.62;2.93;2.40;;;24.90;20.30;;;;;;2255107;61;20370;-69
2022/04/18 09:52:49;0.00;0.00;0.62;0.00;0.00;0.62;2.77;2.13;;;24.90;20.30;;;;;;2488429;53;20397;-61
2022/04/18 09:55:34;0.00;0.00;0.62;0.00;0.00;0.62;3.03;2.20;;;25.00;20.40;;;;;;2252287;61;20389;-58
2022/04/18 09:58:20;0.00;0.00;0.62;0.00;0.00;0.62;2.60;2.40;;;25.00;20.40;;;;;;2255713;61;20794;-57
2022/04/18 10:01:07;0.00;0.00;0.62;0.00;0.00;0.62;2.60;2.07;;;25.00;20.40;;;;;;2255635;61;21055;-60
2022/04/18 10:03:52;0.00;0.00;0.62;0.00;0.00;0.62;3.30;2.57;;;25.00;20.40;;;;;;2255877;61;20377;-59
2022/04/18 10:06:41;0.00;0.00;0.62;0.00;0.00;0.62;2.63;2.17;;;25.10;20.30;;;;;;2256319;61;20377;-60
2022/04/18 10:09:26;0.00;0.00;0.62;0.00;0.00;0.62;6.10;2.50;;;25.10;20.30;;;;;;2254710;61;20382;-55
2022/04/18 10:12:13;0.00;0.00;0.62;0.00;0.00;0.62;4.20;2.70;;;25.10;20.30;;;;;;2256403;61;20425;-67
2022/04/18 10:14:58;0.00;0.00;0.62;0.00;0.00;0.62;3.03;2.33;;;25.10;20.30;;;;;;2256831;61;20906;-65
2022/04/18 10:17:44;0.00;0.00;0.62;0.00;0.00;0.62;2.63;2.20;;;25.10;20.30;;;;;;2256432;61;20389;-60
2022/04/18 10:20:49;0.00;0.00;0.62;0.00;0.00;0.62;2.80;1.70;;;25.20;20.40;;;;;;2256567;61;20409;-62
2022/04/18 10:24:21;0.00;0.00;0.62;0.00;0.00;0.62;3.60;2.27;;;25.20;20.40;;;;;;2256258;61;20401;-61
2022/04/18 10:27:40;0.00;0.00;0.62;0.00;0.00;0.62;2.20;1.87;;;25.20;20.40;;;;;;2256816;61;20357;-60
2022/04/18 10:30:26;0.00;0.00;0.62;0.00;0.00;0.62;3.37;1.73;;;25.20;20.50;;;;;;2255799;61;20389;-62
2022/04/18 10:33:14;0.00;0.00;0.62;0.00;0.00;0.62;2.80;1.90;;;25.30;20.50;;;;;;2256925;61;20449;-60
2022/04/18 10:36:03;0.00;0.00;0.62;0.00;0.00;0.62;2.77;2.33;;;25.30;20.60;;;;;;2257021;61;20377;-62
2022/04/18 10:38:49;0.00;0.00;0.62;0.00;0.00;0.62;9.60;1.90;;;25.30;20.60;;;;;;2255717;61;20416;-62
2022/04/18 10:41:37;0.00;0.00;0.62;0.00;0.00;0.62;3.20;2.30;;;25.40;20.70;;;;;;2256355;61;20413;-63
2022/04/18 10:44:32;0.00;0.00;0.62;0.00;0.00;0.62;2.70;2.20;;;25.40;20.70;;;;;;2256840;61;20421;-64
2022/04/18 10:47:17;0.00;0.00;0.62;0.00;0.00;0.62;2.80;1.80;;;25.40;20.70;;;;;;2256605;61;20362;-61
2022/04/18 10:50:18;0.00;0.00;0.62;0.00;0.00;0.62;3.00;2.00;;;25.40;20.70;;;;;;2256043;61;20366;-60
2022/04/18 10:53:17;0.00;0.00;0.62;0.00;0.00;0.62;2.43;2.10;;;25.40;20.70;;;;;;2255811;61;20446;-62
2022/04/18 10:56:12;0.00;0.00;0.62;0.00;0.00;0.62;3.10;2.60;;;25.50;20.80;;;;;;2256329;61;20382;-60
2022/04/18 10:59:00;0.00;0.00;0.62;0.00;0.00;0.62;2.37;1.63;;;25.50;20.80;;;;;;2256488;61;20373;-62
2022/04/18 11:01:45;0.00;0.00;0.62;0.00;0.00;0.62;1.97;1.53;;;25.50;20.80;;;;;;2256050;61;20385;-62
2022/04/18 11:04:32;0.00;0.00;0.62;0.00;0.00;0.62;2.17;1.80;;;25.60;20.80;;;;;;2256232;61;20901;-60
2022/04/18 11:07:17;0.00;0.00;0.62;0.00;0.00;0.62;2.13;1.50;;;25.60;20.80;;;;;;2255962;61;20362;-60
2022/04/18 11:10:02;0.00;0.00;0.62;0.00;0.00;0.62;2.63;1.90;;;25.60;20.80;;;;;;2256638;61;20358;-62
2022/04/18 11:12:47;0.00;0.00;0.62;0.00;0.00;0.62;2.50;1.60;;;25.60;20.80;;;;;;2256566;61;20453;-62
2022/04/18 11:15:32;0.00;0.00;0.62;0.00;0.00;0.62;2.50;1.93;;;25.70;20.80;;;;;;2252044;61;20428;-63
2022/04/18 11:18:29;0.00;0.00;0.62;0.00;0.00;0.62;2.20;2.00;;;25.70;20.80;;;;;;2253459;61;20366;-65
2022/04/18 11:21:54;0.00;0.00;0.62;0.00;0.00;0.62;3.30;2.13;;;25.80;20.90;;;;;;2257733;61;20843;-61
2022/04/18 11:24:40;0.00;0.00;0.62;0.00;0.00;0.62;2.90;2.10;;;25.80;20.90;;;;;;2257576;61;20361;-59
2022/04/18 11:27:33;0.00;0.00;0.62;0.00;0.00;0.62;2.10;1.63;;;25.80;20.90;;;;;;2257203;61;20369;-62